createdAt,value
2018-01-29T00:01:49.698Z,11.63
2018-01-29T00:04:15.647Z,11.60
2018-01-29T00:06:41.583Z,11.66
2018-01-29T00:09:07.540Z,11.38
2018-01-29T00:11:33.469Z,11.53
2018-01-29T00:13:59.406Z,11.62
2018-01-29T00:16:25.355Z,11.70
2018-01-29T00:18:51.300Z,11.44
2018-01-29T00:21:17.235Z,11.45
2018-01-29T00:23:43.174Z,11.55
2018-01-29T00:26:09.129Z,11.32
2018-01-29T00:28:35.058Z,11.38
2018-01-29T00:31:00.989Z,11.42
2018-01-29T00:33:26.911Z,11.46
2018-01-29T00:35:52.849Z,11.42
2018-01-29T00:38:18.787Z,11.40
2018-01-29T00:40:44.740Z,11.43
2018-01-29T00:43:10.729Z,11.36
2018-01-29T00:45:36.656Z,11.48
2018-01-29T00:48:02.619Z,11.51
2018-01-29T00:50:28.559Z,11.40
2018-01-29T00:52:54.501Z,11.52
2018-01-29T00:55:20.449Z,11.54
2018-01-29T00:57:46.393Z,11.54
2018-01-29T01:00:12.343Z,11.47
2018-01-29T01:02:38.273Z,11.49
2018-01-29T01:05:04.205Z,11.48
2018-01-29T01:07:30.192Z,11.31
2018-01-29T01:09:56.127Z,11.49
2018-01-29T01:12:22.076Z,11.41
2018-01-29T01:14:48.029Z,11.56
2018-01-29T01:17:13.975Z,11.58
2018-01-29T01:19:39.926Z,11.29
2018-01-29T01:22:05.864Z,11.61
2018-01-29T01:24:31.805Z,11.72
2018-01-29T01:26:57.761Z,11.56
2018-01-29T01:29:23.733Z,11.55
2018-01-29T01:31:49.683Z,11.52
2018-01-29T01:34:15.629Z,11.42
2018-01-29T01:36:41.591Z,11.62
2018-01-29T01:39:07.535Z,11.67
2018-01-29T01:41:33.483Z,11.76
2018-01-29T01:43:59.488Z,11.57
2018-01-29T01:46:25.428Z,11.57
2018-01-29T01:48:51.375Z,11.61
2018-01-29T01:51:17.314Z,11.61
2018-01-29T01:53:43.240Z,11.64
2018-01-29T01:56:09.199Z,11.63
2018-01-29T01:58:35.147Z,11.60
2018-01-29T02:01:01.083Z,11.62
2018-01-29T02:03:27.009Z,11.66
2018-01-29T02:05:52.929Z,11.60
2018-01-29T02:08:18.851Z,11.61
2018-01-29T02:13:17.206Z,11.59
2018-01-29T02:15:43.128Z,11.65
2018-01-29T02:18:09.048Z,11.69
2018-01-29T02:20:35.010Z,11.52
2018-01-29T02:23:00.956Z,11.51
2018-01-29T02:25:26.882Z,11.47
2018-01-29T02:27:52.810Z,11.67
2018-01-29T02:30:18.750Z,11.67
2018-01-29T02:32:44.692Z,11.66
2018-01-29T02:35:10.628Z,11.45
2018-01-29T02:37:36.577Z,11.63
2018-01-29T02:40:02.518Z,11.42
2018-01-29T02:42:28.459Z,11.53
2018-01-29T02:44:54.402Z,11.56
2018-01-29T02:47:20.358Z,11.38
2018-01-29T02:49:46.291Z,11.59
2018-01-29T02:52:12.224Z,11.73
2018-01-29T02:54:38.170Z,11.50
2018-01-29T02:57:04.124Z,11.53
2018-01-29T02:59:30.052Z,11.52
2018-01-29T03:01:56.019Z,11.39
2018-01-29T03:04:21.956Z,11.56
2018-01-29T03:06:47.892Z,11.38
2018-01-29T03:09:13.820Z,11.40
2018-01-29T03:11:39.768Z,11.37
2018-01-29T03:14:05.712Z,11.50
2018-01-29T03:16:31.650Z,11.51
2018-01-29T03:18:57.587Z,11.44
2018-01-29T03:21:23.558Z,11.55
2018-01-29T03:23:49.500Z,11.45
2018-01-29T03:26:15.442Z,11.41
2018-01-29T03:28:41.384Z,11.46
2018-01-29T03:31:07.347Z,11.49
2018-01-29T03:33:33.266Z,11.59
2018-01-29T03:35:59.216Z,11.59
2018-01-29T03:38:25.160Z,11.43
2018-01-29T03:40:51.107Z,11.46
2018-01-29T03:43:17.061Z,11.62
2018-01-29T03:45:43.040Z,11.51
2018-01-29T03:48:08.994Z,11.66
2018-01-29T03:50:34.942Z,11.76
2018-01-29T03:53:00.904Z,11.71
2018-01-29T03:55:26.858Z,11.68
2018-01-29T03:57:52.852Z,11.71
2018-01-29T04:00:18.806Z,11.52
2018-01-29T04:02:44.736Z,11.55
2018-01-29T04:05:10.662Z,11.77
2018-01-29T04:07:36.576Z,11.74
2018-01-29T04:10:02.502Z,11.72
2018-01-29T04:12:28.493Z,11.75
2018-01-29T04:14:54.449Z,11.66
2018-01-29T04:17:20.378Z,11.64
2018-01-29T04:19:46.344Z,11.68
2018-01-29T04:22:12.283Z,11.67
2018-01-29T04:24:38.226Z,11.70
2018-01-29T04:27:04.177Z,11.71
2018-01-29T04:29:30.110Z,11.79
2018-01-29T04:31:56.048Z,11.71
2018-01-29T04:34:21.990Z,11.72
2018-01-29T04:36:47.943Z,11.74
2018-01-29T04:39:13.869Z,11.62
2018-01-29T04:41:39.859Z,11.68
2018-01-29T04:44:05.802Z,11.54
2018-01-29T04:46:31.776Z,11.72
2018-01-29T04:48:57.733Z,11.77
2018-01-29T04:51:23.678Z,11.83
2018-01-29T04:53:51.700Z,11.46
2018-01-29T04:56:18.714Z,11.67
2018-01-29T04:58:44.749Z,11.70
2018-01-29T05:01:10.689Z,11.53
2018-01-29T05:03:36.625Z,11.78
2018-01-29T05:06:02.544Z,11.76
2018-01-29T05:08:28.495Z,11.77
2018-01-29T05:10:54.431Z,11.84
2018-01-29T05:13:20.365Z,11.67
2018-01-29T05:15:46.323Z,11.70
2018-01-29T05:18:12.284Z,11.70
2018-01-29T05:20:38.235Z,11.72
2018-01-29T05:23:04.254Z,11.70
2018-01-29T05:25:30.217Z,11.58
2018-01-29T05:27:56.227Z,11.59
2018-01-29T05:30:22.163Z,11.58
2018-01-29T05:32:48.113Z,11.58
2018-01-29T05:35:14.043Z,11.57
2018-01-29T05:37:40.000Z,11.52
2018-01-29T05:40:06.028Z,11.60
2018-01-29T05:42:31.945Z,11.64
2018-01-29T05:44:57.879Z,11.65
2018-01-29T05:47:23.887Z,11.70
2018-01-29T05:49:49.855Z,11.77
2018-01-29T05:52:15.819Z,11.75
2018-01-29T05:54:41.767Z,11.85
2018-01-29T05:57:07.729Z,11.78
2018-01-29T05:59:33.666Z,11.87
2018-01-29T06:01:59.617Z,11.83
2018-01-29T06:04:25.550Z,11.84
2018-01-29T06:06:51.517Z,11.84
2018-01-29T06:09:17.453Z,11.87
2018-01-29T06:11:43.401Z,11.70
2018-01-29T06:14:09.365Z,11.82
2018-01-29T06:16:35.333Z,11.81
2018-01-29T06:19:01.264Z,11.75
2018-01-29T06:21:27.197Z,11.76
2018-01-29T06:23:53.167Z,11.82
2018-01-29T06:26:19.107Z,11.66
2018-01-29T06:28:45.043Z,11.72
2018-01-29T06:31:10.999Z,11.78
2018-01-29T06:33:36.961Z,11.68
2018-01-29T06:36:02.880Z,11.74
2018-01-29T06:38:28.819Z,11.72
2018-01-29T06:40:54.767Z,11.62
2018-01-29T06:43:20.702Z,11.66
2018-01-29T06:45:46.642Z,11.59
2018-01-29T06:48:12.593Z,11.60
2018-01-29T06:50:38.535Z,11.75
2018-01-29T06:53:04.502Z,11.87
2018-01-29T06:55:30.448Z,11.92
2018-01-29T06:57:56.397Z,11.87
2018-01-29T07:00:22.338Z,11.63
2018-01-29T07:02:48.297Z,11.85
2018-01-29T07:05:14.240Z,11.84
2018-01-29T07:07:40.195Z,11.68
2018-01-29T07:10:06.133Z,11.83
2018-01-29T07:12:32.085Z,11.82
2018-01-29T07:14:58.155Z,11.98
2018-01-29T07:17:24.142Z,12.04
2018-01-29T07:19:50.071Z,11.96
2018-01-29T07:22:15.999Z,11.98
2018-01-29T07:24:42.038Z,11.99
2018-01-29T07:27:07.980Z,11.92
2018-01-29T07:29:33.936Z,12.07
2018-01-29T07:32:00.438Z,12.08
2018-01-29T07:34:26.373Z,12.00
2018-01-29T07:36:52.321Z,11.98
2018-01-29T07:39:18.267Z,12.03
2018-01-29T07:41:44.233Z,11.97
2018-01-29T07:44:10.193Z,11.97
2018-01-29T07:46:36.164Z,12.04
2018-01-29T07:49:02.112Z,12.06
2018-01-29T07:51:28.066Z,12.17
2018-01-29T07:53:53.994Z,12.18
2018-01-29T07:56:19.957Z,12.16
2018-01-29T07:58:45.896Z,12.27
2018-01-29T08:01:11.853Z,12.37
2018-01-29T08:03:37.827Z,12.41
2018-01-29T08:06:03.777Z,12.45
2018-01-29T08:08:29.726Z,12.44
2018-01-29T08:10:55.719Z,12.51
2018-01-29T08:13:21.658Z,12.62
2018-01-29T08:15:47.609Z,12.71
2018-01-29T08:18:13.596Z,12.66
2018-01-29T08:20:39.576Z,12.68
2018-01-29T08:23:05.559Z,12.72
2018-01-29T08:25:31.494Z,12.77
2018-01-29T08:27:57.413Z,12.70
2018-01-29T08:30:23.365Z,12.73
2018-01-29T08:32:49.374Z,12.80
2018-01-29T08:35:15.352Z,12.92
2018-01-29T08:37:41.285Z,12.82
2018-01-29T08:40:07.235Z,12.80
2018-01-29T08:42:33.183Z,12.98
2018-01-29T08:44:59.138Z,12.96
2018-01-29T08:47:25.066Z,12.82
2018-01-29T08:49:51.051Z,12.80
2018-01-29T08:52:17.010Z,12.80
2018-01-29T08:54:42.966Z,12.87
2018-01-29T08:57:08.916Z,13.09
2018-01-29T08:59:34.850Z,13.06
2018-01-29T09:02:00.794Z,12.99
2018-01-29T09:04:26.818Z,12.98
2018-01-29T09:06:52.742Z,13.06
2018-01-29T09:09:18.670Z,13.09
2018-01-29T09:11:44.618Z,12.99
2018-01-29T09:14:10.589Z,13.02
2018-01-29T09:16:36.530Z,12.90
2018-01-29T09:19:02.456Z,12.98
2018-01-29T09:21:28.404Z,13.13
2018-01-29T09:23:54.344Z,12.93
2018-01-29T09:26:20.274Z,12.97
2018-01-29T09:28:46.217Z,13.02
2018-01-29T09:31:12.147Z,12.93
2018-01-29T09:33:38.096Z,12.86
2018-01-29T09:36:04.043Z,12.90
2018-01-29T09:38:29.970Z,12.93
2018-01-29T09:40:55.912Z,12.98
2018-01-29T09:43:21.848Z,12.90
2018-01-29T09:45:47.779Z,12.90
2018-01-29T09:48:13.718Z,12.88
2018-01-29T09:50:39.664Z,12.78
2018-01-29T09:53:05.602Z,12.74
2018-01-29T09:55:31.590Z,12.69
2018-01-29T09:57:57.530Z,12.72
2018-01-29T10:00:23.482Z,12.70
2018-01-29T10:02:49.402Z,12.76
2018-01-29T10:05:15.350Z,12.83
2018-01-29T10:07:41.292Z,12.78
2018-01-29T10:10:07.252Z,12.74
2018-01-29T10:12:33.190Z,12.68
2018-01-29T10:14:59.146Z,12.69
2018-01-29T10:17:25.090Z,12.79
2018-01-29T10:19:51.032Z,12.69
2018-01-29T10:22:16.958Z,12.57
2018-01-29T10:24:42.914Z,12.70
2018-01-29T10:27:08.874Z,12.43
2018-01-29T10:29:34.827Z,12.69
2018-01-29T10:32:00.765Z,12.68
2018-01-29T10:34:26.707Z,12.77
2018-01-29T10:36:52.646Z,12.79
2018-01-29T10:39:18.586Z,12.84
2018-01-29T10:41:44.520Z,12.86
2018-01-29T10:44:10.457Z,12.86
2018-01-29T10:46:36.662Z,12.84
2018-01-29T10:49:02.623Z,12.69
2018-01-29T10:51:28.561Z,12.65
2018-01-29T10:53:54.524Z,12.65
2018-01-29T10:56:20.443Z,12.69
2018-01-29T10:58:46.413Z,12.80
2018-01-29T11:01:12.370Z,12.80
2018-01-29T11:03:38.319Z,12.85
2018-01-29T11:06:04.248Z,12.96
2018-01-29T11:08:30.174Z,12.95
2018-01-29T11:10:56.122Z,12.93
2018-01-29T11:13:22.059Z,12.96
2018-01-29T11:15:48.019Z,12.77
2018-01-29T11:18:13.956Z,12.96
2018-01-29T11:20:39.946Z,12.91
2018-01-29T11:23:05.860Z,12.90
2018-01-29T11:25:31.789Z,12.91
2018-01-29T11:27:57.732Z,12.96
2018-01-29T11:30:23.863Z,13.04
2018-01-29T11:32:49.809Z,12.96
2018-01-29T11:35:15.763Z,12.93
2018-01-29T11:37:41.718Z,12.96
2018-01-29T11:40:07.666Z,13.05
2018-01-29T11:42:33.614Z,12.95
2018-01-29T11:44:59.609Z,12.99
2018-01-29T11:47:25.547Z,13.10
2018-01-29T11:49:51.494Z,13.06
2018-01-29T11:52:17.445Z,13.07
2018-01-29T11:54:43.401Z,13.03
2018-01-29T11:57:09.363Z,12.97
2018-01-29T11:59:35.323Z,13.03
2018-01-29T12:02:01.262Z,13.10
2018-01-29T12:04:27.199Z,13.04
2018-01-29T12:06:53.161Z,13.15
2018-01-29T12:09:19.102Z,13.10
2018-01-29T12:11:45.031Z,13.02
2018-01-29T12:14:10.963Z,12.93
2018-01-29T12:16:36.899Z,13.11
2018-01-29T12:19:02.839Z,13.05
2018-01-29T12:21:28.789Z,13.01
2018-01-29T12:23:54.728Z,13.02
2018-01-29T12:26:20.671Z,13.04
2018-01-29T12:28:46.626Z,13.03
2018-01-29T12:31:12.572Z,12.94
2018-01-29T12:33:38.561Z,12.86
2018-01-29T12:36:04.511Z,13.05
2018-01-29T12:38:30.453Z,13.07
2018-01-29T12:40:56.421Z,13.04
2018-01-29T12:43:22.385Z,13.08
2018-01-29T12:45:48.353Z,12.80
2018-01-29T12:48:14.309Z,12.94
2018-01-29T12:50:40.235Z,12.88
2018-01-29T12:53:06.180Z,12.81
2018-01-29T12:55:32.115Z,12.87
2018-01-29T12:57:58.065Z,12.82
2018-01-29T13:00:24.009Z,12.83
2018-01-29T13:02:49.963Z,12.89
2018-01-29T13:05:15.913Z,12.95
2018-01-29T13:07:41.858Z,12.94
2018-01-29T13:10:07.806Z,13.03
2018-01-29T13:12:33.729Z,13.02
2018-01-29T13:14:59.677Z,13.04
2018-01-29T13:17:25.619Z,13.10
2018-01-29T13:19:51.551Z,13.05
2018-01-29T13:22:17.493Z,12.99
2018-01-29T13:24:43.429Z,13.01
2018-01-29T13:27:09.381Z,13.14
2018-01-29T13:29:35.337Z,13.21
2018-01-29T13:32:01.285Z,13.13
2018-01-29T13:34:27.223Z,13.29
2018-01-29T13:36:53.171Z,13.30
2018-01-29T13:39:19.173Z,13.30
2018-01-29T13:41:45.099Z,13.34
2018-01-29T13:44:11.074Z,13.11
2018-01-29T13:46:37.039Z,13.15
2018-01-29T13:49:02.985Z,13.25
2018-01-29T13:51:28.943Z,13.25
2018-01-29T13:53:54.880Z,13.21
2018-01-29T13:56:20.851Z,13.07
2018-01-29T13:58:46.863Z,13.06
2018-01-29T14:01:12.843Z,13.09
2018-01-29T14:03:38.856Z,13.11
2018-01-29T14:06:04.790Z,13.18
2018-01-29T14:08:30.753Z,13.18
2018-01-29T14:10:56.713Z,13.18
2018-01-29T14:13:22.775Z,13.22
2018-01-29T14:15:48.720Z,13.10
2018-01-29T14:18:14.691Z,13.17
2018-01-29T14:20:40.617Z,13.26
2018-01-29T14:23:06.551Z,13.23
2018-01-29T14:25:32.484Z,13.17
2018-01-29T14:27:58.431Z,13.19
2018-01-29T14:30:24.380Z,13.26
2018-01-29T14:32:50.315Z,13.15
2018-01-29T14:35:16.261Z,13.19
2018-01-29T14:37:42.251Z,13.10
2018-01-29T14:40:09.283Z,13.20
2018-01-29T14:42:35.309Z,13.24
2018-01-29T14:45:01.271Z,13.07
2018-01-29T14:47:27.223Z,13.06
2018-01-29T14:49:53.222Z,13.10
2018-01-29T14:52:19.198Z,13.03
2018-01-29T14:54:45.162Z,13.00
2018-01-29T14:57:12.112Z,13.06
2018-01-29T14:59:38.040Z,13.09
2018-01-29T15:02:04.001Z,13.05
2018-01-29T15:04:29.968Z,13.08
2018-01-29T15:06:55.965Z,13.11
2018-01-29T15:09:21.940Z,12.99
2018-01-29T15:11:47.910Z,12.87
2018-01-29T15:14:13.854Z,12.94
2018-01-29T15:16:39.800Z,12.85
2018-01-29T15:19:06.868Z,12.89
2018-01-29T15:21:32.794Z,12.91
2018-01-29T15:23:58.718Z,12.86
2018-01-29T15:26:24.648Z,12.87
2018-01-29T15:28:50.587Z,12.81
2018-01-29T15:31:16.562Z,12.91
2018-01-29T15:33:43.616Z,12.83
2018-01-29T15:36:09.580Z,12.92
2018-01-29T15:38:35.542Z,12.79
2018-01-29T15:41:01.566Z,12.87
2018-01-29T15:43:27.544Z,12.86
2018-01-29T15:45:53.508Z,12.85
2018-01-29T15:48:19.434Z,12.83
2018-01-29T15:50:45.472Z,12.90
2018-01-29T15:53:11.400Z,12.95
2018-01-29T15:55:37.446Z,12.83
2018-01-29T15:58:03.386Z,12.85
2018-01-29T16:00:29.335Z,12.78
2018-01-29T16:02:55.290Z,12.80
2018-01-29T16:05:21.311Z,12.72
2018-01-29T16:07:47.248Z,12.73
2018-01-29T16:10:13.182Z,12.63
2018-01-29T16:12:39.124Z,12.71
2018-01-29T16:15:05.060Z,12.77
2018-01-29T16:17:31.020Z,12.76
2018-01-29T16:19:56.952Z,12.67
2018-01-29T16:22:22.918Z,12.65
2018-01-29T16:24:48.870Z,12.71
2018-01-29T16:27:14.811Z,12.70
2018-01-29T16:29:40.831Z,12.54
2018-01-29T16:32:06.764Z,12.51
2018-01-29T16:34:32.686Z,12.71
2018-01-29T16:36:58.634Z,12.73
2018-01-29T16:39:24.562Z,12.73
2018-01-29T16:41:50.502Z,13.48
2018-01-29T16:44:16.501Z,14.10
2018-01-29T16:46:42.413Z,13.95
2018-01-29T16:49:08.374Z,13.23
2018-01-29T16:51:34.430Z,12.99
2018-01-29T16:54:00.374Z,12.84
2018-01-29T16:56:26.468Z,12.77
2018-01-29T16:58:52.498Z,12.76
2018-01-29T17:01:18.430Z,12.77
2018-01-29T17:03:44.390Z,12.83
2018-01-29T17:06:10.330Z,12.73
2018-01-29T17:08:36.266Z,12.76
2018-01-29T17:11:02.230Z,12.74
2018-01-29T17:13:28.180Z,12.72
2018-01-29T17:15:54.118Z,12.63
2018-01-29T17:18:20.076Z,12.56
2018-01-29T17:20:46.162Z,12.66
2018-01-29T17:23:12.124Z,12.73
2018-01-29T17:25:38.175Z,12.76
2018-01-29T17:28:04.121Z,12.60
2018-01-29T17:30:30.083Z,12.58
2018-01-29T17:32:56.027Z,12.64
2018-01-29T17:35:22.009Z,12.69
2018-01-29T17:37:47.981Z,12.70
2018-01-29T17:40:13.919Z,12.68
2018-01-29T17:42:39.874Z,12.73
2018-01-29T17:45:05.817Z,12.69
2018-01-29T17:47:31.773Z,12.66
2018-01-29T17:49:57.782Z,12.63
2018-01-29T17:52:23.727Z,12.69
2018-01-29T17:54:49.677Z,12.66
2018-01-29T17:57:15.630Z,12.61
2018-01-29T17:59:41.569Z,12.63
2018-01-29T18:02:07.691Z,12.51
2018-01-29T18:04:33.638Z,12.59
2018-01-29T18:06:59.666Z,12.46
2018-01-29T18:09:25.609Z,12.53
2018-01-29T18:11:51.557Z,12.34
2018-01-29T18:14:17.499Z,12.53
2018-01-29T18:16:43.481Z,12.34
2018-01-29T18:19:09.418Z,12.41
2018-01-29T18:21:35.355Z,12.44
2018-01-29T18:24:01.309Z,12.40
2018-01-29T18:26:27.253Z,12.38
2018-01-29T18:28:53.206Z,12.24
2018-01-29T18:31:19.151Z,12.33
2018-01-29T18:33:45.099Z,12.33
2018-01-29T18:36:11.055Z,12.19
2018-01-29T18:38:37.019Z,12.32
2018-01-29T18:41:03.007Z,12.44
2018-01-29T18:43:28.958Z,12.22
2018-01-29T18:45:54.919Z,12.41
2018-01-29T18:48:20.873Z,12.36
2018-01-29T18:50:47.175Z,12.40
2018-01-29T18:53:13.127Z,12.29
2018-01-29T18:55:39.064Z,12.48
2018-01-29T18:58:05.017Z,12.28
2018-01-29T19:00:31.066Z,12.36
2018-01-29T19:02:57.018Z,12.24
2018-01-29T19:05:22.995Z,12.47
2018-01-29T19:07:48.959Z,12.33
2018-01-29T19:10:14.920Z,12.30
2018-01-29T19:12:40.944Z,12.36
2018-01-29T19:15:06.889Z,12.22
2018-01-29T19:20:09.491Z,12.27
2018-01-29T19:22:35.532Z,12.29
2018-01-29T19:25:01.476Z,12.32
2018-01-29T19:27:27.456Z,12.24
2018-01-29T19:29:53.436Z,12.43
2018-01-29T19:32:19.523Z,12.39
2018-01-29T19:34:45.475Z,12.40
2018-01-29T19:37:11.429Z,12.42
2018-01-29T19:39:37.417Z,12.42
2018-01-29T19:42:03.371Z,12.38
2018-01-29T19:44:29.357Z,12.27
2018-01-29T19:46:55.317Z,12.22
2018-01-29T19:49:21.335Z,12.30
2018-01-29T19:51:47.351Z,12.14
2018-01-29T19:54:13.327Z,12.27
2018-01-29T19:56:39.321Z,12.34
2018-01-29T19:59:05.271Z,12.43
2018-01-29T20:01:31.229Z,12.26
2018-01-29T20:03:57.196Z,12.25
2018-01-29T20:06:23.172Z,12.26
2018-01-29T20:08:49.139Z,12.20
2018-01-29T20:11:15.193Z,12.34
2018-01-29T20:13:41.131Z,12.19
2018-01-29T20:16:07.083Z,12.25
2018-01-29T20:18:33.157Z,12.25
2018-01-29T20:20:59.122Z,12.26
2018-01-29T20:23:25.080Z,12.18
2018-01-29T20:25:51.089Z,12.13
2018-01-29T20:28:17.152Z,12.14
2018-01-29T20:30:43.125Z,12.21
2018-01-29T20:33:09.068Z,12.29
2018-01-29T20:35:35.026Z,12.21
2018-01-29T20:38:00.976Z,12.19
2018-01-29T20:40:26.931Z,12.04
2018-01-29T20:42:52.892Z,12.01
2018-01-29T20:45:18.829Z,12.15
2018-01-29T20:47:44.820Z,12.08
2018-01-29T20:50:10.752Z,12.07
2018-01-29T20:52:36.696Z,12.22
2018-01-29T20:55:02.640Z,12.13
2018-01-29T20:57:28.585Z,11.85
2018-01-29T20:59:54.534Z,11.96
2018-01-29T21:02:20.503Z,11.92
2018-01-29T21:04:46.547Z,11.93
2018-01-29T21:07:12.497Z,11.99
2018-01-29T21:09:38.431Z,12.09
2018-01-29T21:12:04.392Z,12.06
2018-01-29T21:14:30.334Z,11.84
2018-01-29T21:16:56.272Z,11.97
2018-01-29T21:19:22.216Z,11.91
2018-01-29T21:21:48.238Z,11.92
2018-01-29T21:24:14.236Z,11.95
2018-01-29T21:26:40.263Z,12.08
2018-01-29T21:29:06.203Z,12.14
2018-01-29T21:34:04.209Z,12.04
2018-01-29T21:36:30.147Z,11.91
2018-01-29T21:38:56.127Z,11.78
2018-01-29T21:41:22.095Z,11.89
2018-01-29T21:43:48.063Z,11.83
2018-01-29T21:46:14.033Z,11.94
2018-01-29T21:48:39.971Z,11.97
2018-01-29T21:51:05.922Z,11.85
2018-01-29T21:53:31.870Z,11.85
2018-01-29T21:55:57.837Z,11.85
2018-01-29T21:58:23.797Z,11.79
2018-01-29T22:00:49.747Z,11.77
2018-01-29T22:03:15.703Z,11.83
2018-01-29T22:05:41.657Z,11.80
2018-01-29T22:08:07.601Z,11.83
2018-01-29T22:10:33.555Z,11.94
2018-01-29T22:12:59.538Z,11.74
2018-01-29T22:15:25.515Z,11.80
2018-01-29T22:17:51.458Z,11.85
2018-01-29T22:20:17.417Z,11.95
2018-01-29T22:22:43.381Z,12.02
2018-01-29T22:25:09.321Z,11.78
2018-01-29T22:27:35.286Z,11.60
2018-01-29T22:30:01.243Z,11.76
2018-01-29T22:32:27.179Z,11.70
2018-01-29T22:34:53.131Z,11.70
2018-01-29T22:37:19.087Z,11.74
2018-01-29T22:39:45.063Z,11.85
2018-01-29T22:42:11.021Z,11.89
2018-01-29T22:44:36.995Z,11.88
2018-01-29T22:47:02.941Z,11.79
2018-01-29T22:49:28.861Z,11.77
2018-01-29T22:51:54.795Z,11.79
2018-01-29T22:54:20.739Z,11.61
2018-01-29T22:56:46.715Z,11.52
2018-01-29T22:59:12.694Z,11.35
2018-01-29T23:01:38.702Z,11.38
2018-01-29T23:04:04.637Z,11.20
2018-01-29T23:06:30.607Z,11.18
2018-01-29T23:08:56.558Z,11.02
2018-01-29T23:11:22.526Z,10.91
2018-01-29T23:13:48.457Z,11.03
2018-01-29T23:16:14.388Z,10.77
2018-01-29T23:18:40.368Z,10.87
2018-01-29T23:21:06.294Z,10.87
2018-01-29T23:23:32.231Z,10.66
2018-01-29T23:25:58.208Z,10.79
2018-01-29T23:28:24.143Z,10.64
2018-01-29T23:30:50.087Z,10.57
2018-01-29T23:33:16.011Z,10.52
2018-01-29T23:35:41.963Z,10.46
2018-01-29T23:38:07.885Z,10.52
2018-01-29T23:40:33.838Z,10.55
2018-01-29T23:42:59.778Z,10.55
2018-01-29T23:45:25.718Z,10.51
2018-01-29T23:47:51.648Z,10.53
2018-01-29T23:50:17.605Z,10.52
2018-01-29T23:52:43.540Z,10.41
2018-01-29T23:55:09.496Z,10.53
2018-01-29T23:57:35.485Z,10.44
